createdAt,value
2023-07-03T00:00:20.565Z,20.64
2023-07-03T00:03:23.653Z,20.58
2023-07-03T00:06:25.767Z,20.63
2023-07-03T00:09:27.690Z,20.55
2023-07-03T00:12:29.676Z,20.49
2023-07-03T00:15:32.067Z,20.47
2023-07-03T00:18:34.015Z,20.47
2023-07-03T00:21:44.963Z,20.51
2023-07-03T00:24:47.099Z,20.54
2023-07-03T00:27:49.244Z,20.50
2023-07-03T00:30:51.235Z,20.52
2023-07-03T00:33:53.101Z,20.52
2023-07-03T00:36:55.921Z,20.49
2023-07-03T00:39:57.892Z,20.48
2023-07-03T00:43:00.231Z,20.42
2023-07-03T00:46:02.308Z,20.43
2023-07-03T00:49:06.075Z,20.50
2023-07-03T00:52:10.853Z,20.48
2023-07-03T00:55:14.932Z,20.43
2023-07-03T00:58:17.025Z,20.45
2023-07-03T01:01:35.643Z,20.45
2023-07-03T01:04:56.901Z,20.44
2023-07-03T01:08:00.467Z,20.49
2023-07-03T01:11:02.878Z,20.52
2023-07-03T01:14:08.543Z,20.55
2023-07-03T01:17:11.870Z,20.56
2023-07-03T01:20:18.204Z,20.51
2023-07-03T01:23:43.628Z,20.41
2023-07-03T01:26:47.554Z,20.40
2023-07-03T01:29:53.990Z,20.34
2023-07-03T01:32:57.916Z,20.36
2023-07-03T01:36:01.300Z,20.35
2023-07-03T01:39:04.220Z,20.33
2023-07-03T01:42:08.103Z,20.21
2023-07-03T01:45:10.961Z,20.24
2023-07-03T01:48:13.036Z,20.12
2023-07-03T01:51:21.557Z,20.08
2023-07-03T01:54:32.441Z,20.02
2023-07-03T01:57:48.085Z,20.05
2023-07-03T02:00:56.349Z,20.02
2023-07-03T02:04:08.042Z,20.03
2023-07-03T02:07:13.058Z,20.01
2023-07-03T02:10:15.096Z,20.03
2023-07-03T02:13:17.318Z,20.01
2023-07-03T02:16:19.285Z,19.92
2023-07-03T02:19:28.649Z,19.82
2023-07-03T02:22:30.647Z,19.88
2023-07-03T02:25:32.642Z,19.95
2023-07-03T02:28:35.832Z,19.98
2023-07-03T02:31:38.161Z,19.96
2023-07-03T02:34:40.450Z,19.70
2023-07-03T02:37:42.350Z,19.31
2023-07-03T02:40:44.599Z,19.00
2023-07-03T02:43:46.562Z,19.08
2023-07-03T02:46:48.685Z,19.10
2023-07-03T02:49:50.748Z,19.05
2023-07-03T02:52:52.726Z,19.06
2023-07-03T02:55:57.739Z,19.04
2023-07-03T02:58:59.715Z,19.06
2023-07-03T03:02:01.822Z,19.15
2023-07-03T03:05:03.981Z,19.15
2023-07-03T03:08:06.046Z,19.08
2023-07-03T03:11:08.179Z,19.14
2023-07-03T03:14:10.233Z,19.10
2023-07-03T03:17:12.157Z,19.16
2023-07-03T03:20:17.272Z,19.10
2023-07-03T03:23:19.252Z,19.05
2023-07-03T03:26:21.750Z,18.96
2023-07-03T03:29:23.827Z,19.13
2023-07-03T03:32:26.645Z,19.11
2023-07-03T03:35:28.600Z,19.13
2023-07-03T03:38:30.571Z,19.18
2023-07-03T03:41:32.687Z,19.18
2023-07-03T03:44:34.930Z,19.19
2023-07-03T03:47:36.982Z,19.06
2023-07-03T03:50:39.420Z,19.01
2023-07-03T03:53:41.564Z,18.86
2023-07-03T03:56:43.564Z,18.75
2023-07-03T03:59:45.673Z,18.72
2023-07-03T04:02:48.314Z,18.65
2023-07-03T04:05:50.693Z,18.64
2023-07-03T04:08:53.205Z,18.56
2023-07-03T04:11:55.561Z,18.62
2023-07-03T04:14:57.525Z,18.71
2023-07-03T04:17:59.614Z,18.74
2023-07-03T04:21:01.592Z,18.75
2023-07-03T04:24:03.724Z,18.75
2023-07-03T04:27:06.430Z,18.79
2023-07-03T04:30:09.311Z,18.89
2023-07-03T04:33:11.301Z,18.98
2023-07-03T04:36:14.368Z,19.11
2023-07-03T04:39:17.106Z,19.07
2023-07-03T04:42:19.010Z,18.94
2023-07-03T04:45:22.718Z,18.90
2023-07-03T04:48:24.684Z,18.99
2023-07-03T04:51:31.999Z,19.05
2023-07-03T04:54:34.413Z,19.04
2023-07-03T04:57:43.528Z,19.03
2023-07-03T05:00:45.416Z,18.96
2023-07-03T05:03:47.562Z,18.95
2023-07-03T05:06:50.070Z,18.96
2023-07-03T05:09:52.058Z,18.94
2023-07-03T05:12:54.254Z,18.89
2023-07-03T05:15:56.357Z,18.91
2023-07-03T05:18:58.357Z,18.91
2023-07-03T05:22:00.325Z,18.90
2023-07-03T05:25:02.376Z,18.86
2023-07-03T05:28:04.491Z,18.93
2023-07-03T05:31:06.603Z,18.88
2023-07-03T05:34:08.660Z,18.86
2023-07-03T05:37:10.651Z,18.97
2023-07-03T05:40:16.327Z,19.01
2023-07-03T05:43:19.780Z,19.04
2023-07-03T05:46:21.830Z,19.17
2023-07-03T05:49:23.840Z,19.23
2023-07-03T05:52:26.388Z,19.29
2023-07-03T05:55:28.407Z,19.31
2023-07-03T05:58:30.599Z,19.51
2023-07-03T06:01:32.741Z,19.60
2023-07-03T06:04:34.979Z,19.76
2023-07-03T06:07:36.887Z,19.86
2023-07-03T06:10:39.591Z,19.86
2023-07-03T06:13:41.659Z,19.70
2023-07-03T06:16:44.889Z,19.60
2023-07-03T06:19:46.880Z,19.55
2023-07-03T06:22:49.168Z,19.58
2023-07-03T06:25:52.012Z,19.59
2023-07-03T06:28:54.269Z,19.62
2023-07-03T06:31:56.247Z,19.67
2023-07-03T06:34:58.531Z,19.59
2023-07-03T06:38:02.268Z,19.47
2023-07-03T06:41:04.347Z,19.48
2023-07-03T06:44:07.906Z,19.46
2023-07-03T06:47:09.950Z,19.44
2023-07-03T06:50:12.213Z,19.50
2023-07-03T06:53:14.195Z,19.59
2023-07-03T06:56:16.216Z,19.64
2023-07-03T06:59:18.296Z,19.82
2023-07-03T07:02:20.520Z,19.88
2023-07-03T07:05:22.730Z,19.96
2023-07-03T07:08:24.804Z,20.06
2023-07-03T07:11:34.671Z,20.23
2023-07-03T07:14:36.942Z,20.27
2023-07-03T07:17:51.051Z,20.29
2023-07-03T07:20:55.699Z,20.22
2023-07-03T07:23:59.526Z,20.37
2023-07-03T07:27:01.801Z,20.43
2023-07-03T07:30:04.245Z,20.47
2023-07-03T07:33:06.299Z,20.33
2023-07-03T07:36:13.631Z,20.37
2023-07-03T07:39:15.883Z,20.34
2023-07-03T07:42:17.942Z,20.42
2023-07-03T07:45:20.064Z,20.50
2023-07-03T07:48:23.135Z,20.39
2023-07-03T07:51:27.189Z,20.41
2023-07-03T07:54:29.194Z,20.43
2023-07-03T07:57:31.547Z,20.26
2023-07-03T08:00:33.621Z,20.18
2023-07-03T08:03:35.827Z,20.13
2023-07-03T08:06:37.848Z,20.18
2023-07-03T08:09:39.933Z,20.11
2023-07-03T08:12:43.280Z,20.19
2023-07-03T08:15:46.853Z,20.27
2023-07-03T08:18:50.010Z,20.19
2023-07-03T08:21:52.471Z,20.12
2023-07-03T08:24:54.756Z,20.20
2023-07-03T08:27:56.937Z,20.20
2023-07-03T08:30:59.482Z,20.23
2023-07-03T08:34:01.801Z,20.34
2023-07-03T08:40:09.991Z,20.33
2023-07-03T08:43:19.735Z,20.29
2023-07-03T08:46:25.472Z,20.35
2023-07-03T08:49:28.803Z,20.36
2023-07-03T08:52:51.283Z,20.27
2023-07-03T08:55:58.512Z,20.33
2023-07-03T08:59:04.022Z,20.18
2023-07-03T09:02:20.705Z,20.29
2023-07-03T09:05:49.784Z,20.28
2023-07-03T09:09:08.349Z,20.27
2023-07-03T09:12:34.830Z,20.33
2023-07-03T09:15:45.764Z,20.33
2023-07-03T09:18:52.726Z,20.31
2023-07-03T09:21:59.136Z,20.20
2023-07-03T09:25:05.120Z,20.11
2023-07-03T09:28:10.564Z,20.09
2023-07-03T09:31:12.539Z,20.09
2023-07-03T09:34:17.381Z,20.17
2023-07-03T09:37:19.318Z,20.24
2023-07-03T09:40:30.313Z,20.12
2023-07-03T09:43:32.989Z,20.06
2023-07-03T09:46:35.096Z,20.19
2023-07-03T09:49:37.538Z,20.32
2023-07-03T09:52:59.362Z,20.32
2023-07-03T09:56:17.915Z,20.49
2023-07-03T09:59:21.095Z,20.54
2023-07-03T10:08:43.179Z,20.97
2023-07-03T10:12:13.299Z,21.24
2023-07-03T10:15:21.705Z,21.35
2023-07-03T10:18:35.495Z,21.57
2023-07-03T10:21:40.067Z,21.86
2023-07-03T10:24:43.990Z,22.14
2023-07-03T10:27:47.652Z,22.10
2023-07-03T10:30:55.087Z,22.44
2023-07-03T10:34:03.532Z,22.49
2023-07-03T10:37:07.518Z,22.70
2023-07-03T10:40:18.729Z,22.95
2023-07-03T10:43:23.257Z,22.98
2023-07-03T10:46:51.522Z,23.10
2023-07-03T10:49:53.560Z,23.29
2023-07-03T10:53:24.605Z,23.35
2023-07-03T10:56:43.496Z,23.38
2023-07-03T10:59:50.929Z,23.78
2023-07-03T11:03:29.080Z,23.70
2023-07-03T11:06:58.539Z,23.41
2023-07-03T11:10:27.254Z,23.11
2023-07-03T11:13:45.513Z,23.03
2023-07-03T11:16:59.415Z,22.89
2023-07-03T11:20:27.086Z,23.15
2023-07-03T11:23:38.568Z,23.02
2023-07-03T11:29:49.185Z,23.65
2023-07-03T11:32:51.668Z,24.36
2023-07-03T11:35:59.072Z,24.95
2023-07-03T11:46:06.798Z,25.51
2023-07-03T11:49:13.285Z,26.00
2023-07-03T11:52:26.668Z,25.16
2023-07-03T11:55:38.654Z,25.22
2023-07-03T11:58:41.057Z,24.82
2023-07-03T12:01:43.250Z,25.17
2023-07-03T12:04:49.827Z,24.96
2023-07-03T12:07:52.434Z,25.12
2023-07-03T12:11:00.339Z,24.87
2023-07-03T12:14:02.450Z,24.67
2023-07-03T12:17:04.726Z,24.96
2023-07-03T12:20:11.828Z,24.59
2023-07-03T12:23:30.639Z,25.11
2023-07-03T12:26:33.179Z,25.71
2023-07-03T12:29:49.372Z,26.20
2023-07-03T12:32:53.016Z,26.15
2023-07-03T12:35:55.102Z,26.63
2023-07-03T12:38:58.083Z,27.29
2023-07-03T12:42:09.234Z,27.09
2023-07-03T12:45:20.461Z,27.71
2023-07-03T12:48:24.318Z,28.84
2023-07-03T12:51:26.356Z,29.38
2023-07-03T12:54:28.517Z,29.08
2023-07-03T12:57:35.542Z,28.26
2023-07-03T13:00:37.864Z,28.16
2023-07-03T13:03:42.167Z,28.80
2023-07-03T13:06:45.245Z,29.50
2023-07-03T13:09:47.497Z,29.43
2023-07-03T13:13:11.745Z,29.73
2023-07-03T13:16:19.135Z,30.02
2023-07-03T13:19:35.991Z,29.88
2023-07-03T13:22:38.339Z,29.44
2023-07-03T13:25:52.544Z,29.24
2023-07-03T13:29:02.862Z,28.46
2023-07-03T13:32:23.569Z,28.78
2023-07-03T13:35:32.481Z,28.14
2023-07-03T13:38:35.350Z,27.87
2023-07-03T13:41:39.003Z,27.46
2023-07-03T13:44:40.964Z,27.69
2023-07-03T13:47:42.969Z,27.56
2023-07-03T13:50:45.378Z,26.57
2023-07-03T13:53:51.150Z,26.32
2023-07-03T13:56:55.960Z,26.39
2023-07-03T13:59:57.945Z,26.14
2023-07-03T14:03:00.142Z,26.09
2023-07-03T14:06:02.519Z,26.00
2023-07-03T14:09:05.525Z,25.91
2023-07-03T14:12:08.097Z,25.25
2023-07-03T14:15:30.179Z,25.52
2023-07-03T14:18:32.328Z,25.77
2023-07-03T14:21:35.186Z,25.28
2023-07-03T14:24:37.184Z,25.25
2023-07-03T14:27:40.488Z,25.49
2023-07-03T14:30:43.080Z,24.93
2023-07-03T14:33:45.254Z,25.04
2023-07-03T14:36:47.813Z,25.39
2023-07-03T14:39:49.840Z,25.35
2023-07-03T14:42:51.815Z,25.77
2023-07-03T14:45:54.155Z,25.83
2023-07-03T14:48:56.419Z,25.39
2023-07-03T14:51:58.345Z,25.60
2023-07-03T14:55:00.375Z,25.47
2023-07-03T14:58:02.434Z,25.43
2023-07-03T15:01:05.194Z,25.58
2023-07-03T15:04:09.964Z,25.61
2023-07-03T15:07:12.554Z,25.67
2023-07-03T15:10:16.533Z,25.38
2023-07-03T15:13:18.601Z,25.43
2023-07-03T15:16:20.675Z,25.45
2023-07-03T15:19:22.741Z,25.79
2023-07-03T15:22:24.865Z,25.75
2023-07-03T15:25:27.174Z,25.84
2023-07-03T15:28:29.129Z,25.85
2023-07-03T15:31:31.632Z,25.72
2023-07-03T15:34:33.683Z,25.76
2023-07-03T15:37:35.703Z,25.77
2023-07-03T15:40:38.799Z,25.43
2023-07-03T15:43:41.083Z,25.36
2023-07-03T15:46:43.926Z,25.38
2023-07-03T15:49:47.426Z,25.43
2023-07-03T15:52:49.387Z,25.04
2023-07-03T15:56:04.178Z,25.15
2023-07-03T15:59:06.898Z,24.87
2023-07-03T16:02:08.857Z,24.76
2023-07-03T16:05:11.948Z,24.92
2023-07-03T16:08:13.833Z,24.89
2023-07-03T16:11:21.442Z,25.00
2023-07-03T16:14:23.492Z,25.05
2023-07-03T16:17:25.712Z,24.99
2023-07-03T16:20:27.972Z,24.99
2023-07-03T16:23:32.521Z,24.79
2023-07-03T16:26:34.973Z,24.55
2023-07-03T16:29:36.936Z,24.34
2023-07-03T16:32:39.010Z,24.30
2023-07-03T16:35:40.990Z,24.27
2023-07-03T16:38:51.376Z,24.27
2023-07-03T16:41:53.387Z,24.39
2023-07-03T16:44:55.436Z,24.39
2023-07-03T16:47:58.589Z,24.45
2023-07-03T16:51:02.033Z,24.31
2023-07-03T16:54:04.249Z,24.42
2023-07-03T16:57:06.405Z,24.12
2023-07-03T17:00:09.743Z,24.05
2023-07-03T17:03:13.116Z,24.01
2023-07-03T17:06:22.069Z,24.07
2023-07-03T17:09:24.372Z,24.04
2023-07-03T17:12:26.496Z,23.98
2023-07-03T17:15:28.913Z,23.83
2023-07-03T17:18:31.148Z,23.77
2023-07-03T17:21:33.617Z,23.70
2023-07-03T17:24:36.122Z,23.58
2023-07-03T17:27:38.701Z,23.48
2023-07-03T17:30:41.095Z,23.50
2023-07-03T17:33:43.726Z,23.50
2023-07-03T17:36:45.946Z,23.47
2023-07-03T17:39:48.296Z,23.42
2023-07-03T17:42:50.749Z,23.47
2023-07-03T17:45:54.848Z,23.40
2023-07-03T17:48:57.740Z,23.31
2023-07-03T17:51:59.909Z,23.17
2023-07-03T17:55:02.264Z,23.20
2023-07-03T17:58:05.238Z,23.27
2023-07-03T18:01:07.982Z,23.15
2023-07-03T18:04:11.031Z,23.18
2023-07-03T18:07:15.593Z,23.14
2023-07-03T18:10:17.848Z,23.07
2023-07-03T18:13:20.403Z,23.07
2023-07-03T18:16:23.188Z,23.04
2023-07-03T18:19:25.500Z,22.96
2023-07-03T18:22:28.215Z,22.81
2023-07-03T18:25:30.843Z,22.78
2023-07-03T18:28:33.192Z,22.80
2023-07-03T18:31:35.805Z,22.73
2023-07-03T18:34:38.154Z,22.71
2023-07-03T18:37:40.916Z,22.68
2023-07-03T18:40:45.038Z,22.59
2023-07-03T18:43:47.735Z,22.52
2023-07-03T18:46:50.311Z,22.48
2023-07-03T18:49:52.568Z,22.43
2023-07-03T18:52:54.764Z,22.41
2023-07-03T18:55:57.382Z,22.41
2023-07-03T18:59:00.340Z,22.36
2023-07-03T19:02:02.699Z,22.38
2023-07-03T19:05:06.695Z,22.36
2023-07-03T19:08:09.316Z,22.34
2023-07-03T19:11:12.111Z,22.32
2023-07-03T19:14:16.266Z,22.23
2023-07-03T19:17:19.383Z,22.21
2023-07-03T19:20:22.550Z,22.21
2023-07-03T19:23:25.621Z,22.15
2023-07-03T19:26:30.656Z,22.11
2023-07-03T19:29:33.404Z,22.06
2023-07-03T19:32:36.102Z,22.01
2023-07-03T19:35:38.526Z,21.93
2023-07-03T19:38:43.466Z,21.95
2023-07-03T19:41:45.943Z,21.91
2023-07-03T19:44:48.469Z,21.82
2023-07-03T19:47:51.455Z,21.69
2023-07-03T19:50:54.571Z,21.72
2023-07-03T19:53:57.079Z,21.70
2023-07-03T19:56:59.679Z,21.70
2023-07-03T20:00:02.169Z,21.65
2023-07-03T20:03:04.674Z,21.63
2023-07-03T20:06:19.643Z,21.63
2023-07-03T20:09:22.211Z,21.63
2023-07-03T20:12:25.031Z,21.61
2023-07-03T20:15:27.029Z,21.57
2023-07-03T20:18:29.369Z,21.57
2023-07-03T20:21:32.084Z,21.56
2023-07-03T20:24:36.254Z,21.52
2023-07-03T20:27:39.283Z,21.52
2023-07-03T20:30:47.653Z,21.50
2023-07-03T20:33:50.515Z,21.50
2023-07-03T20:36:53.161Z,21.49
2023-07-03T20:39:59.058Z,21.50
2023-07-03T20:43:01.266Z,21.50
2023-07-03T20:46:06.048Z,21.48
2023-07-03T20:49:10.804Z,21.37
2023-07-03T20:52:15.691Z,21.37
2023-07-03T20:55:24.689Z,21.31
2023-07-03T20:58:26.976Z,21.26
2023-07-03T21:01:37.840Z,21.22
2023-07-03T21:04:40.903Z,21.23
2023-07-03T21:07:42.925Z,21.13
2023-07-03T21:10:45.075Z,21.12
2023-07-03T21:13:49.593Z,21.07
2023-07-03T21:16:51.663Z,21.02
2023-07-03T21:19:54.071Z,21.00
2023-07-03T21:22:56.106Z,20.94
2023-07-03T21:25:58.279Z,20.89
2023-07-03T21:29:00.800Z,20.84
2023-07-03T21:32:03.051Z,20.77
2023-07-03T21:35:05.512Z,20.77
2023-07-03T21:38:07.575Z,20.78
2023-07-03T21:41:11.766Z,20.81
2023-07-03T21:44:17.012Z,20.83
2023-07-03T21:47:19.354Z,20.83
2023-07-03T21:50:22.314Z,20.87
2023-07-03T21:53:24.507Z,20.86
2023-07-03T21:56:29.472Z,20.89
2023-07-03T21:59:31.484Z,20.90
2023-07-03T22:02:36.308Z,20.94
2023-07-03T22:05:38.311Z,20.95
2023-07-03T22:08:40.313Z,20.93
2023-07-03T22:11:42.361Z,20.94
2023-07-03T22:14:44.576Z,20.97
2023-07-03T22:17:46.524Z,20.99
2023-07-03T22:20:52.998Z,21.00
2023-07-03T22:23:55.185Z,21.02
2023-07-03T22:26:57.238Z,20.98
2023-07-03T22:29:59.585Z,20.88
2023-07-03T22:33:01.683Z,20.76
2023-07-03T22:36:03.919Z,20.63
2023-07-03T22:39:05.931Z,20.51
2023-07-03T22:42:08.187Z,20.41
2023-07-03T22:45:11.003Z,20.36
2023-07-03T22:48:13.175Z,20.31
2023-07-03T22:51:15.324Z,20.31
2023-07-03T22:54:18.341Z,20.30
2023-07-03T22:57:22.306Z,20.23
2023-07-03T23:00:24.789Z,20.02
2023-07-03T23:03:27.776Z,19.96
2023-07-03T23:06:30.287Z,19.88
2023-07-03T23:09:33.640Z,19.87
2023-07-03T23:12:35.920Z,19.78
2023-07-03T23:15:38.008Z,19.73
2023-07-03T23:18:41.715Z,19.69
2023-07-03T23:21:49.683Z,19.71
2023-07-03T23:24:55.745Z,19.57
2023-07-03T23:27:58.123Z,19.47
2023-07-03T23:31:02.269Z,19.46
2023-07-03T23:34:06.831Z,19.41
2023-07-03T23:37:09.431Z,19.13
2023-07-03T23:40:12.207Z,18.94
2023-07-03T23:43:14.939Z,18.85
2023-07-03T23:46:18.377Z,18.73
2023-07-03T23:49:20.489Z,18.78
2023-07-03T23:52:23.722Z,18.76
2023-07-03T23:55:26.264Z,18.74
2023-07-03T23:58:28.355Z,18.64
